sensor_id;sensor_type;location;lat;lon;timestamp;P1;durP1;ratioP1;P2;durP2;ratioP2
64188;SDS011;50493;50.970;10.082;2023-08-24T00:01:56;3.65;;;2.90;;
64188;SDS011;50493;50.970;10.082;2023-08-24T00:04:21;4.05;;;3.13;;
64188;SDS011;50493;50.970;10.082;2023-08-24T00:06:49;3.47;;;2.90;;
64188;SDS011;50493;50.970;10.082;2023-08-24T00:09:14;3.83;;;3.05;;
64188;SDS011;50493;50.970;10.082;2023-08-24T00:11:40;4.00;;;3.00;;
64188;SDS011;50493;50.970;10.082;2023-08-24T00:14:05;3.83;;;3.10;;
64188;SDS011;50493;50.970;10.082;2023-08-24T00:16:31;4.85;;;3.10;;
64188;SDS011;50493;50.970;10.082;2023-08-24T00:18:57;3.20;;;2.80;;
64188;SDS011;50493;50.970;10.082;2023-08-24T00:21:22;3.28;;;2.80;;
64188;SDS011;50493;50.970;10.082;2023-08-24T00:23:50;5.22;;;3.30;;
64188;SDS011;50493;50.970;10.082;2023-08-24T00:26:15;4.38;;;3.00;;
64188;SDS011;50493;50.970;10.082;2023-08-24T00:28:44;4.25;;;2.88;;
64188;SDS011;50493;50.970;10.082;2023-08-24T00:31:10;3.97;;;2.90;;
64188;SDS011;50493;50.970;10.082;2023-08-24T00:33:36;3.92;;;3.03;;
64188;SDS011;50493;50.970;10.082;2023-08-24T00:36:02;4.78;;;3.50;;
64188;SDS011;50493;50.970;10.082;2023-08-24T00:38:29;5.03;;;2.88;;
64188;SDS011;50493;50.970;10.082;2023-08-24T00:40:56;5.40;;;3.20;;
64188;SDS011;50493;50.970;10.082;2023-08-24T00:43:22;4.75;;;3.25;;
64188;SDS011;50493;50.970;10.082;2023-08-24T00:45:49;4.38;;;3.20;;
64188;SDS011;50493;50.970;10.082;2023-08-24T00:48:15;4.93;;;3.20;;
64188;SDS011;50493;50.970;10.082;2023-08-24T00:50:40;4.15;;;3.10;;
64188;SDS011;50493;50.970;10.082;2023-08-24T00:53:05;4.32;;;3.40;;
64188;SDS011;50493;50.970;10.082;2023-08-24T00:55:31;4.60;;;3.15;;
64188;SDS011;50493;50.970;10.082;2023-08-24T00:57:58;4.03;;;3.17;;
64188;SDS011;50493;50.970;10.082;2023-08-24T01:00:24;4.60;;;3.20;;
64188;SDS011;50493;50.970;10.082;2023-08-24T01:02:50;4.30;;;3.35;;
64188;SDS011;50493;50.970;10.082;2023-08-24T01:05:15;4.47;;;3.33;;
64188;SDS011;50493;50.970;10.082;2023-08-24T01:07:40;4.10;;;3.22;;
64188;SDS011;50493;50.970;10.082;2023-08-24T01:10:07;4.20;;;3.38;;
64188;SDS011;50493;50.970;10.082;2023-08-24T01:12:37;4.10;;;3.40;;
64188;SDS011;50493;50.970;10.082;2023-08-24T01:15:15;5.15;;;3.30;;
64188;SDS011;50493;50.970;10.082;2023-08-24T01:17:44;4.35;;;3.60;;
64188;SDS011;50493;50.970;10.082;2023-08-24T01:20:11;4.70;;;3.45;;
64188;SDS011;50493;50.970;10.082;2023-08-24T01:22:41;4.35;;;3.30;;
64188;SDS011;50493;50.970;10.082;2023-08-24T01:25:15;5.85;;;3.55;;
64188;SDS011;50493;50.970;10.082;2023-08-24T01:27:43;4.53;;;3.65;;
64188;SDS011;50493;50.970;10.082;2023-08-24T01:30:10;4.90;;;3.40;;
64188;SDS011;50493;50.970;10.082;2023-08-24T01:32:36;4.95;;;3.40;;
64188;SDS011;50493;50.970;10.082;2023-08-24T01:35:02;5.30;;;3.60;;
64188;SDS011;50493;50.970;10.082;2023-08-24T01:37:30;4.30;;;3.40;;
64188;SDS011;50493;50.970;10.082;2023-08-24T01:39:57;4.90;;;3.60;;
64188;SDS011;50493;50.970;10.082;2023-08-24T01:42:40;5.75;;;3.70;;
64188;SDS011;50493;50.970;10.082;2023-08-24T01:45:13;4.28;;;3.72;;
64188;SDS011;50493;50.970;10.082;2023-08-24T01:47:41;5.95;;;3.63;;
64188;SDS011;50493;50.970;10.082;2023-08-24T01:50:08;4.80;;;3.50;;
64188;SDS011;50493;50.970;10.082;2023-08-24T01:52:34;5.18;;;3.60;;
64188;SDS011;50493;50.970;10.082;2023-08-24T01:55:00;5.80;;;3.72;;
64188;SDS011;50493;50.970;10.082;2023-08-24T01:57:26;5.70;;;3.47;;
64188;SDS011;50493;50.970;10.082;2023-08-24T01:59:52;5.70;;;3.90;;
64188;SDS011;50493;50.970;10.082;2023-08-24T02:02:18;4.47;;;3.63;;
64188;SDS011;50493;50.970;10.082;2023-08-24T02:04:43;5.32;;;3.75;;
64188;SDS011;50493;50.970;10.082;2023-08-24T02:07:09;7.93;;;3.85;;
64188;SDS011;50493;50.970;10.082;2023-08-24T02:09:34;4.22;;;3.53;;
64188;SDS011;50493;50.970;10.082;2023-08-24T02:11:59;4.50;;;4.00;;
64188;SDS011;50493;50.970;10.082;2023-08-24T02:14:25;4.82;;;3.92;;
64188;SDS011;50493;50.970;10.082;2023-08-24T02:16:51;5.22;;;3.65;;
64188;SDS011;50493;50.970;10.082;2023-08-24T02:19:17;4.10;;;3.30;;
64188;SDS011;50493;50.970;10.082;2023-08-24T02:21:42;4.50;;;3.50;;
64188;SDS011;50493;50.970;10.082;2023-08-24T02:24:08;4.03;;;3.30;;
64188;SDS011;50493;50.970;10.082;2023-08-24T02:26:33;4.18;;;3.30;;
64188;SDS011;50493;50.970;10.082;2023-08-24T02:28:59;4.43;;;3.30;;
64188;SDS011;50493;50.970;10.082;2023-08-24T02:31:24;3.90;;;3.10;;
64188;SDS011;50493;50.970;10.082;2023-08-24T02:33:51;4.10;;;3.03;;
64188;SDS011;50493;50.970;10.082;2023-08-24T02:36:17;4.70;;;3.28;;
64188;SDS011;50493;50.970;10.082;2023-08-24T02:38:42;4.38;;;3.28;;
64188;SDS011;50493;50.970;10.082;2023-08-24T02:41:07;3.72;;;3.00;;
64188;SDS011;50493;50.970;10.082;2023-08-24T02:43:34;4.38;;;3.05;;
64188;SDS011;50493;50.970;10.082;2023-08-24T02:46:00;4.75;;;2.90;;
64188;SDS011;50493;50.970;10.082;2023-08-24T02:48:26;3.45;;;2.67;;
64188;SDS011;50493;50.970;10.082;2023-08-24T02:50:53;3.50;;;2.80;;
64188;SDS011;50493;50.970;10.082;2023-08-24T02:53:19;3.53;;;2.92;;
64188;SDS011;50493;50.970;10.082;2023-08-24T02:55:44;3.78;;;2.83;;
64188;SDS011;50493;50.970;10.082;2023-08-24T02:58:10;4.32;;;2.72;;
64188;SDS011;50493;50.970;10.082;2023-08-24T03:00:37;3.17;;;2.60;;
64188;SDS011;50493;50.970;10.082;2023-08-24T03:03:03;3.50;;;2.70;;
64188;SDS011;50493;50.970;10.082;2023-08-24T03:05:30;3.33;;;2.65;;
64188;SDS011;50493;50.970;10.082;2023-08-24T03:07:57;4.15;;;2.88;;
64188;SDS011;50493;50.970;10.082;2023-08-24T03:10:23;4.05;;;3.20;;
64188;SDS011;50493;50.970;10.082;2023-08-24T03:12:48;4.07;;;2.80;;
64188;SDS011;50493;50.970;10.082;2023-08-24T03:15:14;3.47;;;2.65;;
64188;SDS011;50493;50.970;10.082;2023-08-24T03:17:40;4.53;;;2.90;;
64188;SDS011;50493;50.970;10.082;2023-08-24T03:20:06;3.88;;;3.15;;
64188;SDS011;50493;50.970;10.082;2023-08-24T03:22:33;3.47;;;2.80;;
64188;SDS011;50493;50.970;10.082;2023-08-24T03:24:59;3.83;;;2.90;;
64188;SDS011;50493;50.970;10.082;2023-08-24T03:27:25;3.65;;;2.97;;
64188;SDS011;50493;50.970;10.082;2023-08-24T03:29:51;3.88;;;2.92;;
64188;SDS011;50493;50.970;10.082;2023-08-24T03:32:17;4.88;;;3.60;;
64188;SDS011;50493;50.970;10.082;2023-08-24T03:34:42;4.72;;;3.20;;
64188;SDS011;50493;50.970;10.082;2023-08-24T03:37:07;5.95;;;3.22;;
64188;SDS011;50493;50.970;10.082;2023-08-24T03:39:33;4.60;;;3.50;;
64188;SDS011;50493;50.970;10.082;2023-08-24T03:41:59;5.60;;;3.20;;
64188;SDS011;50493;50.970;10.082;2023-08-24T03:44:25;4.38;;;3.25;;
64188;SDS011;50493;50.970;10.082;2023-08-24T03:46:50;4.30;;;3.60;;
64188;SDS011;50493;50.970;10.082;2023-08-24T03:49:16;4.40;;;3.63;;
64188;SDS011;50493;50.970;10.082;2023-08-24T03:51:41;3.90;;;3.00;;
64188;SDS011;50493;50.970;10.082;2023-08-24T03:54:06;4.60;;;3.50;;
64188;SDS011;50493;50.970;10.082;2023-08-24T03:56:32;4.82;;;3.30;;
64188;SDS011;50493;50.970;10.082;2023-08-24T03:58:58;4.75;;;3.30;;
64188;SDS011;50493;50.970;10.082;2023-08-24T04:01:24;4.97;;;3.35;;
64188;SDS011;50493;50.970;10.082;2023-08-24T04:03:49;4.88;;;3.45;;
64188;SDS011;50493;50.970;10.082;2023-08-24T04:06:17;4.50;;;3.30;;
64188;SDS011;50493;50.970;10.082;2023-08-24T04:08:44;4.20;;;3.30;;
64188;SDS011;50493;50.970;10.082;2023-08-24T04:11:09;4.20;;;3.30;;
64188;SDS011;50493;50.970;10.082;2023-08-24T04:13:35;4.43;;;3.40;;
64188;SDS011;50493;50.970;10.082;2023-08-24T04:16:02;4.75;;;3.63;;
64188;SDS011;50493;50.970;10.082;2023-08-24T04:18:28;5.25;;;3.50;;
64188;SDS011;50493;50.970;10.082;2023-08-24T04:20:54;3.67;;;3.00;;
64188;SDS011;50493;50.970;10.082;2023-08-24T04:23:23;4.20;;;2.90;;
64188;SDS011;50493;50.970;10.082;2023-08-24T04:25:49;4.97;;;3.20;;
64188;SDS011;50493;50.970;10.082;2023-08-24T04:28:14;4.50;;;3.28;;
64188;SDS011;50493;50.970;10.082;2023-08-24T04:30:40;3.60;;;2.90;;
64188;SDS011;50493;50.970;10.082;2023-08-24T04:33:07;4.82;;;3.55;;
64188;SDS011;50493;50.970;10.082;2023-08-24T04:35:33;3.92;;;3.13;;
64188;SDS011;50493;50.970;10.082;2023-08-24T04:37:59;5.03;;;3.10;;
64188;SDS011;50493;50.970;10.082;2023-08-24T04:40:25;3.95;;;3.00;;
64188;SDS011;50493;50.970;10.082;2023-08-24T04:42:50;3.67;;;3.08;;
64188;SDS011;50493;50.970;10.082;2023-08-24T04:45:15;4.20;;;3.00;;
64188;SDS011;50493;50.970;10.082;2023-08-24T04:47:41;3.92;;;3.03;;
64188;SDS011;50493;50.970;10.082;2023-08-24T04:50:08;3.83;;;3.00;;
64188;SDS011;50493;50.970;10.082;2023-08-24T04:52:34;4.07;;;2.83;;
64188;SDS011;50493;50.970;10.082;2023-08-24T04:55:00;3.65;;;2.95;;
64188;SDS011;50493;50.970;10.082;2023-08-24T04:57:25;4.18;;;3.10;;
64188;SDS011;50493;50.970;10.082;2023-08-24T04:59:51;3.95;;;2.90;;
64188;SDS011;50493;50.970;10.082;2023-08-24T05:02:16;4.25;;;3.10;;
64188;SDS011;50493;50.970;10.082;2023-08-24T05:04:41;3.67;;;2.50;;
64188;SDS011;50493;50.970;10.082;2023-08-24T05:07:09;3.63;;;3.05;;
64188;SDS011;50493;50.970;10.082;2023-08-24T05:09:35;4.00;;;2.92;;
64188;SDS011;50493;50.970;10.082;2023-08-24T05:12:00;3.40;;;2.58;;
64188;SDS011;50493;50.970;10.082;2023-08-24T05:14:25;3.42;;;2.70;;
64188;SDS011;50493;50.970;10.082;2023-08-24T05:16:51;7.78;;;5.65;;
64188;SDS011;50493;50.970;10.082;2023-08-24T05:19:16;5.63;;;4.20;;
64188;SDS011;50493;50.970;10.082;2023-08-24T05:21:41;5.50;;;3.70;;
64188;SDS011;50493;50.970;10.082;2023-08-24T05:24:08;6.38;;;3.78;;
64188;SDS011;50493;50.970;10.082;2023-08-24T05:26:34;6.10;;;4.00;;
64188;SDS011;50493;50.970;10.082;2023-08-24T05:28:59;4.65;;;3.30;;
64188;SDS011;50493;50.970;10.082;2023-08-24T05:31:24;5.30;;;3.42;;
64188;SDS011;50493;50.970;10.082;2023-08-24T05:33:50;6.18;;;3.78;;
64188;SDS011;50493;50.970;10.082;2023-08-24T05:36:15;5.40;;;3.78;;
64188;SDS011;50493;50.970;10.082;2023-08-24T05:38:41;4.15;;;3.40;;
64188;SDS011;50493;50.970;10.082;2023-08-24T05:41:13;4.72;;;3.50;;
64188;SDS011;50493;50.970;10.082;2023-08-24T05:43:39;6.05;;;3.50;;
64188;SDS011;50493;50.970;10.082;2023-08-24T05:46:04;7.03;;;3.70;;
64188;SDS011;50493;50.970;10.082;2023-08-24T05:48:30;6.25;;;3.88;;
64188;SDS011;50493;50.970;10.082;2023-08-24T05:50:55;7.72;;;3.80;;
64188;SDS011;50493;50.970;10.082;2023-08-24T05:53:20;4.47;;;3.60;;
64188;SDS011;50493;50.970;10.082;2023-08-24T05:55:46;4.55;;;3.47;;
64188;SDS011;50493;50.970;10.082;2023-08-24T05:58:12;9.13;;;5.80;;
64188;SDS011;50493;50.970;10.082;2023-08-24T06:00:38;6.00;;;4.10;;
64188;SDS011;50493;50.970;10.082;2023-08-24T06:03:03;5.63;;;3.80;;
64188;SDS011;50493;50.970;10.082;2023-08-24T06:05:29;8.00;;;6.50;;
64188;SDS011;50493;50.970;10.082;2023-08-24T06:07:54;6.22;;;4.45;;
64188;SDS011;50493;50.970;10.082;2023-08-24T06:10:20;6.88;;;5.40;;
64188;SDS011;50493;50.970;10.082;2023-08-24T06:12:46;8.48;;;6.25;;
64188;SDS011;50493;50.970;10.082;2023-08-24T06:15:12;8.45;;;6.60;;
64188;SDS011;50493;50.970;10.082;2023-08-24T06:17:38;9.05;;;7.38;;
64188;SDS011;50493;50.970;10.082;2023-08-24T06:20:04;9.35;;;5.18;;
64188;SDS011;50493;50.970;10.082;2023-08-24T06:22:30;6.05;;;5.05;;
64188;SDS011;50493;50.970;10.082;2023-08-24T06:24:55;10.07;;;7.07;;
64188;SDS011;50493;50.970;10.082;2023-08-24T06:27:24;4.70;;;3.67;;
64188;SDS011;50493;50.970;10.082;2023-08-24T06:29:50;7.28;;;6.10;;
64188;SDS011;50493;50.970;10.082;2023-08-24T06:32:16;9.73;;;7.00;;
64188;SDS011;50493;50.970;10.082;2023-08-24T06:34:42;10.43;;;6.90;;
64188;SDS011;50493;50.970;10.082;2023-08-24T06:37:07;10.25;;;7.18;;
64188;SDS011;50493;50.970;10.082;2023-08-24T06:39:33;11.70;;;7.47;;
64188;SDS011;50493;50.970;10.082;2023-08-24T06:41:58;7.05;;;3.90;;
64188;SDS011;50493;50.970;10.082;2023-08-24T06:44:23;10.00;;;7.15;;
64188;SDS011;50493;50.970;10.082;2023-08-24T06:46:49;9.27;;;6.60;;
64188;SDS011;50493;50.970;10.082;2023-08-24T06:49:16;9.50;;;8.05;;
64188;SDS011;50493;50.970;10.082;2023-08-24T06:51:41;4.68;;;4.18;;
64188;SDS011;50493;50.970;10.082;2023-08-24T06:54:06;9.57;;;6.18;;
64188;SDS011;50493;50.970;10.082;2023-08-24T06:56:32;5.95;;;4.07;;
64188;SDS011;50493;50.970;10.082;2023-08-24T06:58:57;5.28;;;3.80;;
64188;SDS011;50493;50.970;10.082;2023-08-24T07:01:23;6.25;;;4.78;;
64188;SDS011;50493;50.970;10.082;2023-08-24T07:03:50;13.90;;;7.70;;
64188;SDS011;50493;50.970;10.082;2023-08-24T07:06:17;5.82;;;4.07;;
64188;SDS011;50493;50.970;10.082;2023-08-24T07:08:42;5.07;;;3.70;;
64188;SDS011;50493;50.970;10.082;2023-08-24T07:11:08;10.98;;;7.78;;
64188;SDS011;50493;50.970;10.082;2023-08-24T07:13:33;12.77;;;8.10;;
64188;SDS011;50493;50.970;10.082;2023-08-24T07:15:59;11.98;;;7.93;;
64188;SDS011;50493;50.970;10.082;2023-08-24T07:18:25;10.43;;;7.63;;
64188;SDS011;50493;50.970;10.082;2023-08-24T07:20:50;12.52;;;7.88;;
64188;SDS011;50493;50.970;10.082;2023-08-24T07:23:17;13.65;;;9.40;;
64188;SDS011;50493;50.970;10.082;2023-08-24T07:25:42;13.52;;;8.93;;
64188;SDS011;50493;50.970;10.082;2023-08-24T07:28:08;8.20;;;6.57;;
64188;SDS011;50493;50.970;10.082;2023-08-24T07:30:35;11.63;;;8.05;;
64188;SDS011;50493;50.970;10.082;2023-08-24T07:33:00;9.82;;;7.38;;
64188;SDS011;50493;50.970;10.082;2023-08-24T07:35:28;9.82;;;7.07;;
64188;SDS011;50493;50.970;10.082;2023-08-24T07:37:53;10.82;;;7.70;;
64188;SDS011;50493;50.970;10.082;2023-08-24T07:40:20;12.68;;;7.60;;
64188;SDS011;50493;50.970;10.082;2023-08-24T07:42:46;10.52;;;6.10;;
64188;SDS011;50493;50.970;10.082;2023-08-24T07:45:12;7.18;;;5.22;;
64188;SDS011;50493;50.970;10.082;2023-08-24T07:47:39;12.27;;;7.85;;
64188;SDS011;50493;50.970;10.082;2023-08-24T07:50:04;10.30;;;7.40;;
64188;SDS011;50493;50.970;10.082;2023-08-24T07:52:32;9.88;;;7.82;;
64188;SDS011;50493;50.970;10.082;2023-08-24T07:54:57;12.40;;;7.40;;
64188;SDS011;50493;50.970;10.082;2023-08-24T07:57:26;8.15;;;4.70;;
64188;SDS011;50493;50.970;10.082;2023-08-24T07:59:52;12.88;;;7.57;;
64188;SDS011;50493;50.970;10.082;2023-08-24T08:02:17;13.48;;;7.22;;
64188;SDS011;50493;50.970;10.082;2023-08-24T08:04:43;10.02;;;7.80;;
64188;SDS011;50493;50.970;10.082;2023-08-24T08:07:08;7.90;;;6.32;;
64188;SDS011;50493;50.970;10.082;2023-08-24T08:09:35;10.10;;;7.80;;
64188;SDS011;50493;50.970;10.082;2023-08-24T08:12:01;12.45;;;7.90;;
64188;SDS011;50493;50.970;10.082;2023-08-24T08:14:28;5.90;;;4.18;;
64188;SDS011;50493;50.970;10.082;2023-08-24T08:16:53;6.18;;;4.03;;
64188;SDS011;50493;50.970;10.082;2023-08-24T08:19:18;5.13;;;3.80;;
64188;SDS011;50493;50.970;10.082;2023-08-24T08:21:44;5.63;;;4.03;;
64188;SDS011;50493;50.970;10.082;2023-08-24T08:24:10;4.90;;;3.90;;
64188;SDS011;50493;50.970;10.082;2023-08-24T08:26:36;6.10;;;4.57;;
64188;SDS011;50493;50.970;10.082;2023-08-24T08:29:01;5.82;;;4.20;;
64188;SDS011;50493;50.970;10.082;2023-08-24T08:31:28;4.60;;;3.75;;
64188;SDS011;50493;50.970;10.082;2023-08-24T08:33:53;4.72;;;3.63;;
64188;SDS011;50493;50.970;10.082;2023-08-24T08:36:19;5.65;;;3.90;;
64188;SDS011;50493;50.970;10.082;2023-08-24T08:38:44;4.43;;;3.50;;
64188;SDS011;50493;50.970;10.082;2023-08-24T08:41:09;8.27;;;6.07;;
64188;SDS011;50493;50.970;10.082;2023-08-24T08:43:36;9.05;;;6.38;;
64188;SDS011;50493;50.970;10.082;2023-08-24T08:46:03;5.47;;;4.40;;
64188;SDS011;50493;50.970;10.082;2023-08-24T08:48:30;7.30;;;4.22;;
64188;SDS011;50493;50.970;10.082;2023-08-24T08:50:57;9.63;;;6.93;;
64188;SDS011;50493;50.970;10.082;2023-08-24T08:53:23;5.32;;;3.80;;
64188;SDS011;50493;50.970;10.082;2023-08-24T08:55:49;9.45;;;6.43;;
64188;SDS011;50493;50.970;10.082;2023-08-24T08:58:16;4.70;;;3.70;;
64188;SDS011;50493;50.970;10.082;2023-08-24T09:00:43;8.38;;;5.30;;
64188;SDS011;50493;50.970;10.082;2023-08-24T09:03:11;6.55;;;4.15;;
64188;SDS011;50493;50.970;10.082;2023-08-24T09:05:38;5.10;;;3.75;;
64188;SDS011;50493;50.970;10.082;2023-08-24T09:08:05;5.30;;;4.10;;
64188;SDS011;50493;50.970;10.082;2023-08-24T09:10:31;5.07;;;4.43;;
64188;SDS011;50493;50.970;10.082;2023-08-24T09:12:56;5.55;;;4.07;;
64188;SDS011;50493;50.970;10.082;2023-08-24T09:15:25;9.00;;;5.70;;
64188;SDS011;50493;50.970;10.082;2023-08-24T09:17:51;5.97;;;3.88;;
64188;SDS011;50493;50.970;10.082;2023-08-24T09:20:17;5.38;;;4.22;;
64188;SDS011;50493;50.970;10.082;2023-08-24T09:22:44;9.30;;;5.82;;
64188;SDS011;50493;50.970;10.082;2023-08-24T09:25:10;5.90;;;3.63;;
64188;SDS011;50493;50.970;10.082;2023-08-24T09:27:36;5.68;;;3.92;;
64188;SDS011;50493;50.970;10.082;2023-08-24T09:30:01;4.32;;;3.35;;
64188;SDS011;50493;50.970;10.082;2023-08-24T09:32:27;5.80;;;4.82;;
64188;SDS011;50493;50.970;10.082;2023-08-24T09:34:54;7.40;;;4.93;;
64188;SDS011;50493;50.970;10.082;2023-08-24T09:37:19;11.13;;;5.57;;
64188;SDS011;50493;50.970;10.082;2023-08-24T09:39:46;7.80;;;5.43;;
64188;SDS011;50493;50.970;10.082;2023-08-24T09:42:12;5.95;;;4.95;;
64188;SDS011;50493;50.970;10.082;2023-08-24T09:44:40;6.22;;;5.05;;
64188;SDS011;50493;50.970;10.082;2023-08-24T09:47:08;6.88;;;5.50;;
64188;SDS011;50493;50.970;10.082;2023-08-24T09:49:36;5.72;;;4.95;;
64188;SDS011;50493;50.970;10.082;2023-08-24T09:52:01;7.22;;;5.63;;
64188;SDS011;50493;50.970;10.082;2023-08-24T09:54:31;7.82;;;5.07;;
64188;SDS011;50493;50.970;10.082;2023-08-24T09:57:02;4.28;;;3.88;;
64188;SDS011;50493;50.970;10.082;2023-08-24T09:59:31;3.85;;;3.40;;
64188;SDS011;50493;50.970;10.082;2023-08-24T10:01:58;9.20;;;5.80;;
64188;SDS011;50493;50.970;10.082;2023-08-24T10:04:28;7.32;;;4.75;;
64188;SDS011;50493;50.970;10.082;2023-08-24T10:06:55;5.07;;;3.83;;
64188;SDS011;50493;50.970;10.082;2023-08-24T10:11:52;5.38;;;4.63;;
64188;SDS011;50493;50.970;10.082;2023-08-24T10:16:51;10.18;;;6.22;;
64188;SDS011;50493;50.970;10.082;2023-08-24T10:19:17;7.13;;;6.20;;
64188;SDS011;50493;50.970;10.082;2023-08-24T10:21:43;8.50;;;6.53;;
64188;SDS011;50493;50.970;10.082;2023-08-24T10:24:10;5.30;;;4.38;;
64188;SDS011;50493;50.970;10.082;2023-08-24T10:26:37;7.30;;;5.75;;
64188;SDS011;50493;50.970;10.082;2023-08-24T10:29:05;9.15;;;5.88;;
64188;SDS011;50493;50.970;10.082;2023-08-24T10:31:33;5.30;;;4.80;;
64188;SDS011;50493;50.970;10.082;2023-08-24T10:33:59;6.40;;;5.53;;
64188;SDS011;50493;50.970;10.082;2023-08-24T10:36:26;7.00;;;5.03;;
64188;SDS011;50493;50.970;10.082;2023-08-24T10:38:55;9.52;;;4.88;;
64188;SDS011;50493;50.970;10.082;2023-08-24T10:41:25;6.20;;;5.28;;
64188;SDS011;50493;50.970;10.082;2023-08-24T10:43:51;11.48;;;5.00;;
64188;SDS011;50493;50.970;10.082;2023-08-24T10:46:17;6.88;;;4.53;;
64188;SDS011;50493;50.970;10.082;2023-08-24T10:48:59;7.05;;;4.57;;
64188;SDS011;50493;50.970;10.082;2023-08-24T10:51:25;7.22;;;4.68;;
64188;SDS011;50493;50.970;10.082;2023-08-24T10:53:55;4.75;;;4.25;;
64188;SDS011;50493;50.970;10.082;2023-08-24T10:56:24;7.95;;;4.65;;
64188;SDS011;50493;50.970;10.082;2023-08-24T10:59:09;6.07;;;4.50;;
64188;SDS011;50493;50.970;10.082;2023-08-24T11:01:37;8.02;;;5.50;;
64188;SDS011;50493;50.970;10.082;2023-08-24T11:04:05;6.22;;;4.60;;
64188;SDS011;50493;50.970;10.082;2023-08-24T11:06:33;7.05;;;4.65;;
64188;SDS011;50493;50.970;10.082;2023-08-24T11:09:05;5.93;;;3.38;;
64188;SDS011;50493;50.970;10.082;2023-08-24T11:11:41;6.43;;;3.33;;
64188;SDS011;50493;50.970;10.082;2023-08-24T11:14:13;6.43;;;3.17;;
64188;SDS011;50493;50.970;10.082;2023-08-24T11:16:40;6.60;;;3.42;;
64188;SDS011;50493;50.970;10.082;2023-08-24T11:19:07;5.65;;;3.42;;
64188;SDS011;50493;50.970;10.082;2023-08-24T11:21:33;5.00;;;3.38;;
64188;SDS011;50493;50.970;10.082;2023-08-24T11:23:59;6.55;;;3.47;;
64188;SDS011;50493;50.970;10.082;2023-08-24T11:26:25;5.30;;;3.25;;
64188;SDS011;50493;50.970;10.082;2023-08-24T11:28:52;6.80;;;3.40;;
64188;SDS011;50493;50.970;10.082;2023-08-24T11:31:18;6.22;;;3.10;;
64188;SDS011;50493;50.970;10.082;2023-08-24T11:33:43;6.20;;;3.22;;
64188;SDS011;50493;50.970;10.082;2023-08-24T11:36:10;7.40;;;3.03;;
64188;SDS011;50493;50.970;10.082;2023-08-24T11:38:37;4.72;;;3.10;;
64188;SDS011;50493;50.970;10.082;2023-08-24T11:41:09;6.03;;;3.03;;
64188;SDS011;50493;50.970;10.082;2023-08-24T11:43:35;5.20;;;3.20;;
64188;SDS011;50493;50.970;10.082;2023-08-24T11:46:01;4.45;;;3.30;;
64188;SDS011;50493;50.970;10.082;2023-08-24T11:48:26;4.40;;;3.25;;
64188;SDS011;50493;50.970;10.082;2023-08-24T11:50:54;4.18;;;3.13;;
64188;SDS011;50493;50.970;10.082;2023-08-24T11:53:21;4.80;;;3.53;;
64188;SDS011;50493;50.970;10.082;2023-08-24T11:55:47;4.18;;;2.95;;
64188;SDS011;50493;50.970;10.082;2023-08-24T11:58:13;4.28;;;3.20;;
64188;SDS011;50493;50.970;10.082;2023-08-24T12:00:40;3.97;;;2.90;;
64188;SDS011;50493;50.970;10.082;2023-08-24T12:03:06;5.88;;;3.15;;
64188;SDS011;50493;50.970;10.082;2023-08-24T12:05:31;4.07;;;2.60;;
64188;SDS011;50493;50.970;10.082;2023-08-24T12:07:57;3.92;;;2.97;;
64188;SDS011;50493;50.970;10.082;2023-08-24T12:10:23;3.67;;;2.72;;
64188;SDS011;50493;50.970;10.082;2023-08-24T12:12:49;3.65;;;2.60;;
64188;SDS011;50493;50.970;10.082;2023-08-24T12:15:15;4.03;;;2.70;;
64188;SDS011;50493;50.970;10.082;2023-08-24T12:17:42;5.57;;;2.50;;
64188;SDS011;50493;50.970;10.082;2023-08-24T12:20:15;3.55;;;2.60;;
64188;SDS011;50493;50.970;10.082;2023-08-24T12:22:42;4.18;;;2.45;;
64188;SDS011;50493;50.970;10.082;2023-08-24T12:25:08;3.90;;;2.72;;
64188;SDS011;50493;50.970;10.082;2023-08-24T12:27:35;4.65;;;2.40;;
64188;SDS011;50493;50.970;10.082;2023-08-24T12:30:01;3.55;;;2.30;;
64188;SDS011;50493;50.970;10.082;2023-08-24T12:32:30;5.68;;;2.78;;
64188;SDS011;50493;50.970;10.082;2023-08-24T12:35:07;3.97;;;2.30;;
64188;SDS011;50493;50.970;10.082;2023-08-24T12:37:35;3.08;;;2.50;;
64188;SDS011;50493;50.970;10.082;2023-08-24T12:40:00;3.20;;;2.38;;
64188;SDS011;50493;50.970;10.082;2023-08-24T12:42:26;3.92;;;2.30;;
64188;SDS011;50493;50.970;10.082;2023-08-24T12:44:53;3.38;;;2.28;;
64188;SDS011;50493;50.970;10.082;2023-08-24T12:47:20;3.67;;;2.20;;
64188;SDS011;50493;50.970;10.082;2023-08-24T12:49:46;3.42;;;2.30;;
64188;SDS011;50493;50.970;10.082;2023-08-24T12:52:11;5.28;;;2.35;;
64188;SDS011;50493;50.970;10.082;2023-08-24T12:54:37;3.70;;;2.60;;
64188;SDS011;50493;50.970;10.082;2023-08-24T12:57:02;6.72;;;2.20;;
64188;SDS011;50493;50.970;10.082;2023-08-24T12:59:28;4.35;;;2.42;;
64188;SDS011;50493;50.970;10.082;2023-08-24T13:01:54;4.38;;;2.50;;
64188;SDS011;50493;50.970;10.082;2023-08-24T13:04:20;3.47;;;2.30;;
64188;SDS011;50493;50.970;10.082;2023-08-24T13:06:45;5.35;;;2.40;;
64188;SDS011;50493;50.970;10.082;2023-08-24T13:09:11;3.60;;;2.40;;
64188;SDS011;50493;50.970;10.082;2023-08-24T13:11:37;4.53;;;2.72;;
64188;SDS011;50493;50.970;10.082;2023-08-24T13:14:02;6.68;;;2.40;;
64188;SDS011;50493;50.970;10.082;2023-08-24T13:16:28;3.97;;;2.63;;
64188;SDS011;50493;50.970;10.082;2023-08-24T13:18:54;5.05;;;2.67;;
64188;SDS011;50493;50.970;10.082;2023-08-24T13:21:20;3.53;;;2.40;;
64188;SDS011;50493;50.970;10.082;2023-08-24T13:23:45;3.47;;;2.60;;
64188;SDS011;50493;50.970;10.082;2023-08-24T13:26:16;3.10;;;2.35;;
64188;SDS011;50493;50.970;10.082;2023-08-24T13:28:43;3.00;;;2.33;;
64188;SDS011;50493;50.970;10.082;2023-08-24T13:31:08;4.60;;;2.47;;
64188;SDS011;50493;50.970;10.082;2023-08-24T13:33:33;3.15;;;2.38;;
64188;SDS011;50493;50.970;10.082;2023-08-24T13:36:00;3.42;;;2.50;;
64188;SDS011;50493;50.970;10.082;2023-08-24T13:38:27;3.45;;;2.33;;
64188;SDS011;50493;50.970;10.082;2023-08-24T13:40:52;4.60;;;2.40;;
64188;SDS011;50493;50.970;10.082;2023-08-24T13:43:17;3.92;;;2.65;;
64188;SDS011;50493;50.970;10.082;2023-08-24T13:45:44;3.83;;;2.72;;
64188;SDS011;50493;50.970;10.082;2023-08-24T13:48:10;5.43;;;2.78;;
64188;SDS011;50493;50.970;10.082;2023-08-24T13:50:36;3.65;;;2.30;;
64188;SDS011;50493;50.970;10.082;2023-08-24T13:53:02;3.72;;;2.38;;
64188;SDS011;50493;50.970;10.082;2023-08-24T13:55:28;4.80;;;2.60;;
64188;SDS011;50493;50.970;10.082;2023-08-24T13:57:54;4.70;;;2.38;;
64188;SDS011;50493;50.970;10.082;2023-08-24T14:00:19;3.90;;;2.40;;
64188;SDS011;50493;50.970;10.082;2023-08-24T14:02:48;5.75;;;2.70;;
64188;SDS011;50493;50.970;10.082;2023-08-24T14:05:13;4.38;;;2.50;;
64188;SDS011;50493;50.970;10.082;2023-08-24T14:07:39;4.50;;;2.63;;
64188;SDS011;50493;50.970;10.082;2023-08-24T14:10:06;5.25;;;2.90;;
64188;SDS011;50493;50.970;10.082;2023-08-24T14:12:33;4.72;;;2.55;;
64188;SDS011;50493;50.970;10.082;2023-08-24T14:14:58;5.57;;;2.50;;
64188;SDS011;50493;50.970;10.082;2023-08-24T14:17:24;5.07;;;2.80;;
64188;SDS011;50493;50.970;10.082;2023-08-24T14:19:49;4.28;;;2.97;;
64188;SDS011;50493;50.970;10.082;2023-08-24T14:22:14;3.55;;;2.70;;
64188;SDS011;50493;50.970;10.082;2023-08-24T14:24:40;5.53;;;2.90;;
64188;SDS011;50493;50.970;10.082;2023-08-24T14:27:06;4.25;;;2.72;;
64188;SDS011;50493;50.970;10.082;2023-08-24T14:29:32;7.30;;;3.08;;
64188;SDS011;50493;50.970;10.082;2023-08-24T14:31:57;4.65;;;3.10;;
64188;SDS011;50493;50.970;10.082;2023-08-24T14:34:23;4.43;;;2.75;;